createdAt,value
2019-01-08T00:01:31.648Z,99.90
2019-01-08T00:04:00.865Z,99.90
2019-01-08T00:06:30.056Z,99.90
2019-01-08T00:09:01.628Z,99.90
2019-01-08T00:11:31.700Z,99.90
2019-01-08T00:14:00.877Z,99.90
2019-01-08T00:16:30.821Z,99.90
2019-01-08T00:19:00.577Z,99.90
2019-01-08T00:21:29.875Z,99.90
2019-01-08T00:24:00.537Z,99.90
2019-01-08T00:26:30.117Z,99.90
2019-01-08T00:28:59.347Z,99.90
2019-01-08T00:31:32.435Z,99.90
2019-01-08T00:34:01.706Z,99.90
2019-01-08T00:36:30.907Z,99.90
2019-01-08T00:39:00.106Z,99.90
2019-01-08T00:41:30.158Z,99.80
2019-01-08T00:43:59.320Z,99.90
2019-01-08T00:46:28.506Z,99.90
2019-01-08T00:48:57.681Z,99.90
2019-01-08T00:51:26.866Z,99.90
2019-01-08T00:53:57.856Z,99.90
2019-01-08T00:56:27.051Z,99.90
2019-01-08T00:58:56.227Z,99.90
2019-01-08T01:01:25.433Z,99.90
2019-01-08T01:03:55.084Z,99.90
2019-01-08T01:06:24.271Z,99.90
2019-01-08T01:08:53.439Z,99.90
2019-01-08T01:11:22.652Z,99.90
2019-01-08T01:13:52.055Z,99.90
2019-01-08T01:16:21.256Z,99.90
2019-01-08T01:18:50.456Z,99.90
2019-01-08T01:21:19.706Z,99.90
2019-01-08T01:23:48.952Z,99.90
2019-01-08T01:26:18.122Z,99.90
2019-01-08T01:28:47.319Z,99.90
2019-01-08T01:31:16.549Z,99.90
2019-01-08T01:33:45.818Z,99.90
2019-01-08T01:36:14.984Z,99.90
2019-01-08T01:38:44.171Z,99.90
2019-01-08T01:41:13.516Z,99.90
2019-01-08T01:43:42.699Z,99.90
2019-01-08T01:46:11.860Z,99.90
2019-01-08T01:48:41.054Z,99.90
2019-01-08T01:51:10.596Z,99.90
2019-01-08T01:53:39.957Z,99.90
2019-01-08T01:56:09.117Z,99.90
2019-01-08T01:58:38.376Z,99.90
2019-01-08T02:01:07.648Z,99.90
2019-01-08T02:03:36.951Z,99.90
2019-01-08T02:06:06.132Z,99.90
2019-01-08T02:08:35.312Z,99.90
2019-01-08T02:11:04.584Z,99.90
2019-01-08T02:13:33.744Z,99.90
2019-01-08T02:16:03.254Z,99.90
2019-01-08T02:18:32.448Z,99.90
2019-01-08T02:21:01.779Z,99.90
2019-01-08T02:23:31.048Z,99.90
2019-01-08T02:26:00.248Z,99.90
2019-01-08T02:28:29.441Z,99.90
2019-01-08T02:30:58.634Z,99.90
2019-01-08T02:33:27.814Z,99.90
2019-01-08T02:35:57.021Z,99.90
2019-01-08T02:38:26.206Z,99.90
2019-01-08T02:40:56.208Z,99.90
2019-01-08T02:43:25.805Z,99.90
2019-01-08T02:46:14.110Z,99.90
2019-01-08T02:48:43.416Z,99.90
2019-01-08T02:51:12.991Z,99.90
2019-01-08T02:53:42.732Z,99.90
2019-01-08T02:56:11.929Z,99.90
2019-01-08T02:58:41.692Z,99.90
2019-01-08T03:01:10.868Z,99.90
2019-01-08T03:03:40.251Z,99.90
2019-01-08T03:06:09.510Z,99.90
2019-01-08T03:08:38.693Z,99.90
2019-01-08T03:11:07.941Z,99.90
2019-01-08T03:13:37.319Z,99.90
2019-01-08T03:16:06.485Z,99.90
2019-01-08T03:18:35.779Z,99.90
2019-01-08T03:21:04.994Z,99.90
2019-01-08T03:23:34.203Z,99.90
2019-01-08T03:26:03.365Z,99.90
2019-01-08T03:28:32.569Z,99.90
2019-01-08T03:31:01.826Z,99.90
2019-01-08T03:33:31.011Z,99.90
2019-01-08T03:36:00.175Z,99.90
2019-01-08T03:38:29.365Z,99.90
2019-01-08T03:40:58.653Z,99.90
2019-01-08T03:43:27.910Z,99.90
2019-01-08T03:45:57.113Z,99.90
2019-01-08T03:48:26.377Z,99.90
2019-01-08T03:50:55.679Z,99.90
2019-01-08T03:53:25.407Z,99.90
2019-01-08T03:55:54.851Z,99.90
2019-01-08T03:58:24.045Z,99.90
2019-01-08T04:00:53.245Z,99.90
2019-01-08T04:03:22.407Z,99.90
2019-01-08T04:05:51.900Z,99.90
2019-01-08T04:08:21.039Z,99.90
2019-01-08T04:10:50.222Z,99.90
2019-01-08T04:13:19.406Z,99.90
2019-01-08T04:15:48.811Z,99.90
2019-01-08T04:18:18.077Z,99.90
2019-01-08T04:20:47.247Z,99.90
2019-01-08T04:23:16.434Z,99.90
2019-01-08T04:25:45.603Z,99.90
2019-01-08T04:28:14.839Z,99.90
2019-01-08T04:30:44.034Z,99.90
2019-01-08T04:33:13.213Z,99.90
2019-01-08T04:35:42.395Z,99.90
2019-01-08T04:38:11.585Z,99.90
2019-01-08T04:40:40.751Z,99.90
2019-01-08T04:43:09.951Z,99.90
2019-01-08T04:45:39.106Z,99.90
2019-01-08T04:48:08.286Z,99.90
2019-01-08T04:50:37.444Z,99.90
2019-01-08T04:53:06.647Z,99.90
2019-01-08T04:55:35.895Z,99.90
2019-01-08T04:58:05.102Z,99.90
2019-01-08T05:00:34.292Z,99.90
2019-01-08T05:03:03.563Z,99.90
2019-01-08T05:05:34.273Z,99.90
2019-01-08T05:08:03.834Z,99.90
2019-01-08T05:10:33.020Z,99.90
2019-01-08T05:13:02.200Z,99.90
2019-01-08T05:15:31.380Z,99.90
2019-01-08T05:18:00.572Z,99.90
2019-01-08T05:20:29.848Z,99.90
2019-01-08T05:22:59.102Z,99.90
2019-01-08T05:25:28.251Z,99.90
2019-01-08T05:27:57.444Z,99.90
2019-01-08T05:30:26.610Z,99.90
2019-01-08T05:32:55.884Z,99.90
2019-01-08T05:35:25.144Z,99.90
2019-01-08T05:37:54.309Z,99.90
2019-01-08T05:40:24.028Z,99.90
2019-01-08T05:42:53.224Z,99.90
2019-01-08T05:45:22.780Z,99.90
2019-01-08T05:47:51.952Z,99.90
2019-01-08T05:50:21.118Z,99.90
2019-01-08T05:52:50.272Z,99.90
2019-01-08T05:55:19.452Z,99.90
2019-01-08T05:57:48.690Z,99.90
2019-01-08T06:00:18.089Z,99.90
2019-01-08T06:02:47.315Z,99.90
2019-01-08T06:05:16.492Z,99.90
2019-01-08T06:07:45.749Z,99.90
2019-01-08T06:10:16.008Z,99.90
2019-01-08T06:12:45.244Z,99.90
2019-01-08T06:15:17.788Z,99.90
2019-01-08T06:17:46.972Z,99.90
2019-01-08T06:20:16.170Z,99.90
2019-01-08T06:22:45.340Z,99.90
2019-01-08T06:25:14.541Z,99.90
2019-01-08T06:27:43.707Z,99.90
2019-01-08T06:30:12.906Z,99.90
2019-01-08T06:32:42.161Z,99.90
2019-01-08T06:35:11.433Z,99.90
2019-01-08T06:37:40.828Z,99.90
2019-01-08T06:40:10.085Z,99.90
2019-01-08T06:42:39.321Z,99.90
2019-01-08T06:45:08.617Z,99.90
2019-01-08T06:47:37.817Z,99.90
2019-01-08T06:50:08.285Z,99.90
2019-01-08T06:52:37.467Z,99.90
2019-01-08T06:55:07.930Z,99.90
2019-01-08T06:57:37.228Z,99.90
2019-01-08T07:00:07.661Z,99.90
2019-01-08T07:02:38.337Z,99.90
2019-01-08T07:05:07.868Z,99.90
2019-01-08T07:07:37.059Z,99.90
2019-01-08T07:10:06.987Z,99.90
2019-01-08T07:12:36.173Z,99.90
2019-01-08T07:15:05.373Z,99.90
2019-01-08T07:17:34.842Z,99.90
2019-01-08T07:20:04.409Z,99.90
2019-01-08T07:22:33.609Z,99.90
2019-01-08T07:25:02.776Z,99.90
2019-01-08T07:27:31.965Z,99.90
2019-01-08T07:30:01.147Z,99.90
2019-01-08T07:32:30.404Z,99.90
2019-01-08T07:34:59.560Z,99.90
2019-01-08T07:37:28.750Z,99.90
2019-01-08T07:39:57.916Z,99.90
2019-01-08T07:42:27.133Z,99.90
2019-01-08T07:44:56.299Z,99.90
2019-01-08T07:47:25.491Z,99.90
2019-01-08T07:49:54.674Z,99.90
2019-01-08T07:52:23.868Z,99.90
2019-01-08T07:54:53.232Z,99.90
2019-01-08T07:57:22.496Z,99.90
2019-01-08T07:59:51.667Z,99.90
2019-01-08T08:02:20.862Z,99.90
2019-01-08T08:04:50.392Z,99.90
2019-01-08T08:07:19.584Z,99.90
2019-01-08T08:09:54.938Z,99.90
2019-01-08T08:12:24.117Z,99.90
2019-01-08T08:14:53.712Z,99.90
2019-01-08T08:17:22.918Z,99.90
2019-01-08T08:19:52.092Z,99.90
2019-01-08T08:22:21.334Z,99.90
2019-01-08T08:24:50.588Z,99.90
2019-01-08T08:27:26.644Z,99.90
2019-01-08T08:29:55.810Z,99.90
2019-01-08T08:32:24.992Z,99.90
2019-01-08T08:34:54.161Z,99.90
2019-01-08T08:37:23.696Z,99.90
2019-01-08T08:39:52.864Z,99.90
2019-01-08T08:42:22.066Z,99.90
2019-01-08T08:44:51.240Z,99.90
2019-01-08T08:47:20.426Z,99.90
2019-01-08T08:49:49.705Z,99.90
2019-01-08T08:52:18.965Z,99.90
2019-01-08T08:54:48.168Z,99.90
2019-01-08T08:57:17.336Z,99.90
2019-01-08T08:59:46.868Z,99.90
2019-01-08T09:02:16.068Z,99.90
2019-01-08T09:04:45.306Z,99.90
2019-01-08T09:07:14.493Z,99.90
2019-01-08T09:09:43.992Z,99.90
2019-01-08T09:12:13.160Z,99.90
2019-01-08T09:14:42.344Z,99.90
2019-01-08T09:17:11.528Z,99.90
2019-01-08T09:19:40.704Z,99.90
2019-01-08T09:22:09.910Z,99.90
2019-01-08T09:24:39.160Z,99.90
2019-01-08T09:27:08.358Z,99.90
2019-01-08T09:29:37.533Z,99.90
2019-01-08T09:32:07.572Z,99.90
2019-01-08T09:34:36.749Z,99.90
2019-01-08T09:37:05.937Z,99.90
2019-01-08T09:39:35.301Z,99.90
2019-01-08T09:42:04.573Z,99.90
2019-01-08T09:44:33.797Z,99.90
2019-01-08T09:47:02.996Z,99.90
2019-01-08T09:49:32.180Z,99.90
2019-01-08T09:52:01.445Z,99.90
2019-01-08T09:54:30.759Z,99.90
2019-01-08T09:56:59.949Z,99.90
2019-01-08T09:59:29.105Z,99.90
2019-01-08T10:01:58.343Z,99.90
2019-01-08T10:04:27.557Z,99.90
2019-01-08T10:06:57.035Z,99.90
2019-01-08T10:09:26.291Z,99.90
2019-01-08T10:11:55.449Z,99.90
2019-01-08T10:14:24.712Z,99.90
2019-01-08T10:16:53.875Z,99.90
2019-01-08T10:19:23.141Z,99.90
2019-01-08T10:21:52.334Z,99.90
2019-01-08T10:24:21.594Z,99.90
2019-01-08T10:26:50.898Z,99.90
2019-01-08T10:29:20.175Z,99.90
2019-01-08T10:31:49.352Z,99.90
2019-01-08T10:34:18.764Z,99.90
2019-01-08T10:36:51.177Z,99.90
2019-01-08T10:39:20.338Z,99.90
2019-01-08T10:41:49.539Z,99.90
2019-01-08T10:44:18.717Z,99.90
2019-01-08T10:46:48.093Z,99.90
2019-01-08T10:49:17.506Z,99.90
2019-01-08T10:51:46.765Z,99.90
2019-01-08T10:54:15.964Z,99.90
2019-01-08T10:56:45.167Z,99.90
2019-01-08T10:59:14.338Z,99.90
2019-01-08T11:01:43.537Z,99.90
2019-01-08T11:04:12.713Z,99.90
2019-01-08T11:06:41.913Z,99.90
2019-01-08T11:09:11.229Z,99.90
2019-01-08T11:11:40.481Z,99.90
2019-01-08T11:14:09.763Z,99.90
2019-01-08T11:16:39.441Z,99.90
2019-01-08T11:19:08.622Z,99.90
2019-01-08T11:21:37.826Z,99.90
2019-01-08T11:24:06.999Z,99.90
2019-01-08T11:26:36.540Z,99.90
2019-01-08T11:29:05.742Z,99.90
2019-01-08T11:31:35.231Z,99.80
2019-01-08T11:34:04.409Z,98.10
2019-01-08T11:36:33.622Z,97.40
2019-01-08T11:39:02.841Z,97.30
2019-01-08T11:41:32.043Z,97.80
2019-01-08T11:44:01.684Z,98.20
2019-01-08T11:46:30.952Z,98.70
2019-01-08T11:49:00.184Z,99.30
2019-01-08T11:51:29.356Z,99.90
2019-01-08T11:53:58.651Z,99.80
2019-01-08T11:56:27.836Z,99.70
2019-01-08T11:59:01.069Z,99.90
2019-01-08T12:01:30.681Z,99.90
2019-01-08T12:04:00.280Z,99.90
2019-01-08T12:06:29.480Z,99.90
2019-01-08T12:08:58.651Z,99.50
2019-01-08T12:11:27.834Z,99.90
2019-01-08T12:13:57.012Z,99.30
2019-01-08T12:16:26.316Z,99.30
2019-01-08T12:18:55.468Z,99.70
2019-01-08T12:21:24.692Z,99.40
2019-01-08T12:23:53.914Z,98.80
2019-01-08T12:26:23.685Z,99.00
2019-01-08T12:28:52.884Z,99.20
2019-01-08T12:31:22.056Z,98.50
2019-01-08T12:33:51.752Z,98.90
2019-01-08T12:36:21.736Z,97.40
2019-01-08T12:38:50.942Z,97.00
2019-01-08T12:41:20.111Z,97.10
2019-01-08T12:43:49.393Z,96.80
2019-01-08T12:46:18.552Z,96.40
2019-01-08T12:48:47.820Z,96.50
2019-01-08T12:51:17.213Z,95.60
2019-01-08T12:53:46.480Z,95.80
2019-01-08T12:56:15.662Z,95.00
2019-01-08T12:58:44.933Z,94.50
2019-01-08T13:01:14.285Z,94.10
2019-01-08T13:03:46.385Z,94.20
2019-01-08T13:06:15.549Z,93.90
2019-01-08T13:08:44.740Z,94.10
2019-01-08T13:11:13.913Z,94.10
2019-01-08T13:13:43.255Z,94.10
2019-01-08T13:16:12.730Z,94.60
2019-01-08T13:18:41.932Z,95.00
2019-01-08T13:21:11.112Z,95.20
2019-01-08T13:23:40.381Z,95.60
2019-01-08T13:26:09.952Z,96.40
2019-01-08T13:28:39.159Z,96.10
2019-01-08T13:31:08.333Z,96.30
2019-01-08T13:33:37.617Z,96.60
2019-01-08T13:36:07.769Z,96.80
2019-01-08T13:38:36.965Z,96.80
2019-01-08T13:41:06.141Z,97.00
2019-01-08T13:43:35.559Z,97.10
2019-01-08T13:46:04.799Z,97.30
2019-01-08T13:48:34.081Z,97.20
2019-01-08T13:51:03.398Z,97.50
2019-01-08T13:53:32.600Z,97.60
2019-01-08T13:56:01.869Z,97.60
2019-01-08T13:58:31.165Z,97.80
2019-01-08T14:01:00.365Z,98.00
2019-01-08T14:03:29.635Z,97.80
2019-01-08T14:05:58.819Z,98.10
2019-01-08T14:08:28.145Z,98.00
2019-01-08T14:10:57.351Z,98.30
2019-01-08T14:13:26.501Z,97.90
2019-01-08T14:15:55.692Z,98.30
2019-01-08T14:18:24.932Z,98.40
2019-01-08T14:20:54.165Z,98.60
2019-01-08T14:23:23.373Z,98.50
2019-01-08T14:25:52.936Z,98.70
2019-01-08T14:28:22.093Z,98.70
2019-01-08T14:30:51.317Z,99.00
2019-01-08T14:33:20.498Z,99.30
2019-01-08T14:35:49.817Z,99.70
2019-01-08T14:38:19.012Z,99.60
2019-01-08T14:40:48.261Z,99.60
2019-01-08T14:43:17.469Z,99.40
2019-01-08T14:45:47.613Z,99.50
2019-01-08T14:48:16.883Z,99.40
2019-01-08T14:50:46.061Z,99.50
2019-01-08T14:53:15.317Z,99.60
2019-01-08T14:55:44.521Z,99.20
2019-01-08T14:58:13.726Z,99.00
2019-01-08T15:00:42.986Z,98.60
2019-01-08T15:03:12.229Z,98.60
2019-01-08T15:05:41.426Z,98.30
2019-01-08T15:08:10.586Z,97.90
2019-01-08T15:10:39.777Z,97.40
2019-01-08T15:13:09.000Z,97.40
2019-01-08T15:15:38.269Z,97.00
2019-01-08T15:18:07.537Z,97.00
2019-01-08T15:20:36.738Z,97.30
2019-01-08T15:23:05.987Z,96.90
2019-01-08T15:25:35.178Z,97.00
2019-01-08T15:28:04.432Z,96.90
2019-01-08T15:30:33.713Z,96.70
2019-01-08T15:33:04.175Z,96.90
2019-01-08T15:35:33.345Z,97.00
2019-01-08T15:38:02.541Z,96.90
2019-01-08T15:40:51.386Z,97.10
2019-01-08T15:43:20.758Z,97.30
2019-01-08T15:45:49.929Z,97.40
2019-01-08T15:48:19.130Z,97.00
2019-01-08T15:50:48.900Z,97.10
2019-01-08T15:53:37.162Z,97.00
2019-01-08T15:56:06.358Z,97.20
2019-01-08T15:58:35.570Z,97.50
2019-01-08T16:01:04.768Z,97.60
2019-01-08T16:03:33.979Z,98.20
2019-01-08T16:06:03.172Z,98.00
2019-01-08T16:08:32.449Z,97.90
2019-01-08T16:11:02.705Z,98.10
2019-01-08T16:13:32.311Z,98.10
2019-01-08T16:16:01.496Z,98.10
2019-01-08T16:18:31.320Z,98.20
2019-01-08T16:21:00.522Z,98.30
2019-01-08T16:23:30.275Z,98.20
2019-01-08T16:25:59.724Z,98.40
2019-01-08T16:28:28.976Z,98.70
2019-01-08T16:30:58.355Z,98.50
2019-01-08T16:33:27.664Z,98.60
2019-01-08T16:35:56.970Z,99.10
2019-01-08T16:38:26.286Z,98.80
2019-01-08T16:40:56.594Z,99.00
2019-01-08T16:43:25.890Z,99.30
2019-01-08T16:45:55.158Z,99.10
2019-01-08T16:48:24.368Z,99.40
2019-01-08T16:50:53.636Z,99.10
2019-01-08T16:53:22.888Z,99.20
2019-01-08T16:55:52.496Z,99.30
2019-01-08T16:58:22.904Z,99.90
2019-01-08T17:00:52.576Z,99.90
2019-01-08T17:03:25.487Z,99.90
2019-01-08T17:05:53.392Z,99.90
2019-01-08T17:08:22.763Z,99.90
2019-01-08T17:10:52.172Z,99.90
2019-01-08T17:13:21.459Z,99.90
2019-01-08T17:15:50.876Z,99.90
2019-01-08T17:18:20.073Z,99.90
2019-01-08T17:20:49.614Z,99.90
2019-01-08T17:23:19.007Z,99.90
2019-01-08T17:25:48.596Z,99.90
2019-01-08T17:28:18.109Z,99.90
2019-01-08T17:30:47.528Z,99.90
2019-01-08T17:33:16.831Z,99.90
2019-01-08T17:35:46.437Z,99.90
2019-01-08T17:38:15.779Z,99.90
2019-01-08T17:40:45.121Z,99.90
2019-01-08T17:43:14.553Z,99.90
2019-01-08T17:45:44.213Z,99.90
2019-01-08T17:48:13.616Z,99.90
2019-01-08T17:50:43.140Z,99.90
2019-01-08T17:53:12.708Z,99.90
2019-01-08T17:55:42.369Z,99.90
2019-01-08T17:58:40.175Z,99.90
2019-01-08T18:01:16.879Z,99.90
2019-01-08T18:03:46.613Z,99.90
2019-01-08T18:06:15.925Z,99.90
2019-01-08T18:08:45.361Z,99.90
2019-01-08T18:11:15.269Z,99.90
2019-01-08T18:13:46.863Z,99.90
2019-01-08T18:16:16.528Z,99.90
2019-01-08T18:19:04.429Z,99.90
2019-01-08T18:21:33.733Z,99.90
2019-01-08T18:24:03.129Z,99.90
2019-01-08T18:26:34.396Z,99.90
2019-01-08T18:29:04.999Z,99.90
2019-01-08T18:31:34.403Z,99.90
2019-01-08T18:34:03.993Z,99.90
2019-01-08T18:36:33.620Z,99.90
2019-01-08T18:39:04.639Z,99.90
2019-01-08T18:41:35.303Z,99.90
2019-01-08T18:44:04.697Z,99.90
2019-01-08T18:46:36.069Z,99.90
2019-01-08T18:49:07.821Z,99.90
2019-01-08T18:51:37.123Z,99.90
2019-01-08T18:54:06.539Z,99.90
2019-01-08T18:56:36.407Z,99.90
2019-01-08T18:59:05.852Z,99.90
2019-01-08T19:01:37.710Z,99.90
2019-01-08T19:04:07.169Z,99.90
2019-01-08T19:06:36.519Z,99.90
2019-01-08T19:09:38.386Z,99.90
2019-01-08T19:12:11.640Z,99.90
2019-01-08T19:14:42.198Z,99.90
2019-01-08T19:17:11.533Z,99.90
2019-01-08T19:19:45.854Z,99.90
2019-01-08T19:22:15.294Z,99.90
2019-01-08T19:24:44.662Z,99.90
2019-01-08T19:27:14.311Z,99.90
2019-01-08T19:29:44.046Z,99.90
2019-01-08T19:32:14.127Z,99.90
2019-01-08T19:34:43.774Z,99.90
2019-01-08T19:37:16.406Z,99.90
2019-01-08T19:39:45.866Z,99.90
2019-01-08T19:42:15.884Z,99.90
2019-01-08T19:44:47.183Z,99.90
2019-01-08T19:47:17.274Z,99.90
2019-01-08T19:49:46.676Z,99.90
2019-01-08T19:52:18.718Z,99.90
2019-01-08T19:54:48.473Z,99.90
2019-01-08T19:57:19.440Z,99.90
2019-01-08T19:59:50.664Z,99.90
2019-01-08T20:02:21.674Z,99.90
2019-01-08T20:04:51.186Z,99.90
2019-01-08T20:07:21.988Z,99.90
2019-01-08T20:09:51.408Z,99.90
2019-01-08T20:12:20.970Z,99.90
2019-01-08T20:14:53.294Z,99.90
2019-01-08T20:17:23.320Z,99.90
2019-01-08T20:19:52.755Z,99.90
2019-01-08T20:22:23.349Z,99.90
2019-01-08T20:24:52.810Z,99.90
2019-01-08T20:27:24.389Z,99.90
2019-01-08T20:29:53.990Z,99.90
2019-01-08T20:32:28.392Z,99.90
2019-01-08T20:34:58.206Z,99.90
2019-01-08T20:37:29.383Z,99.90
2019-01-08T20:39:59.287Z,99.90
2019-01-08T20:42:28.717Z,99.90
2019-01-08T20:44:59.233Z,99.90
2019-01-08T20:47:30.153Z,99.90
2019-01-08T20:50:03.223Z,99.90
2019-01-08T20:52:32.629Z,99.90
2019-01-08T20:55:02.131Z,99.90
2019-01-08T20:57:33.087Z,99.90
2019-01-08T21:00:02.816Z,99.90
2019-01-08T21:02:32.148Z,99.90
2019-01-08T21:05:03.576Z,99.90
2019-01-08T21:07:32.989Z,99.90
2019-01-08T21:10:02.666Z,99.90
2019-01-08T21:12:32.141Z,99.90
2019-01-08T21:15:01.799Z,99.90
2019-01-08T21:17:31.242Z,99.90
2019-01-08T21:20:00.882Z,99.90
2019-01-08T21:22:31.884Z,99.90
2019-01-08T21:25:02.382Z,99.90
2019-01-08T21:27:31.849Z,99.90
2019-01-08T21:30:01.155Z,99.90
2019-01-08T21:32:30.517Z,99.90
2019-01-08T21:34:59.894Z,99.90
2019-01-08T21:37:29.545Z,99.90
2019-01-08T21:40:01.342Z,99.90
2019-01-08T21:42:30.745Z,99.90
2019-01-08T21:45:00.266Z,99.90
2019-01-08T21:47:30.082Z,99.90
2019-01-08T21:50:01.150Z,99.90
2019-01-08T21:52:30.626Z,99.90
2019-01-08T21:55:00.191Z,99.90
2019-01-08T21:57:29.770Z,99.90
2019-01-08T22:00:00.286Z,99.90
2019-01-08T22:02:30.180Z,99.90
2019-01-08T22:04:59.604Z,99.90
2019-01-08T22:07:29.017Z,99.90
2019-01-08T22:09:58.368Z,99.90
2019-01-08T22:12:28.004Z,99.90
2019-01-08T22:14:57.354Z,99.90
2019-01-08T22:17:26.839Z,99.90
2019-01-08T22:19:56.163Z,99.90
2019-01-08T22:22:25.536Z,99.90
2019-01-08T22:24:54.923Z,99.90
2019-01-08T22:27:24.541Z,99.90
2019-01-08T22:29:54.014Z,99.90
2019-01-08T22:32:23.653Z,99.90
2019-01-08T22:35:01.755Z,99.90
2019-01-08T22:37:23.778Z,99.90
2019-01-08T22:39:53.024Z,99.90
2019-01-08T22:42:22.424Z,99.90
2019-01-08T22:44:51.677Z,99.90
2019-01-08T22:47:21.488Z,99.90
2019-01-08T22:49:50.674Z,99.90
2019-01-08T22:52:19.856Z,99.90
2019-01-08T22:54:49.032Z,99.90
2019-01-08T22:57:18.720Z,99.90
2019-01-08T22:59:47.908Z,99.90
2019-01-08T23:02:17.097Z,99.90
2019-01-08T23:04:46.448Z,99.90
2019-01-08T23:07:15.749Z,99.90
2019-01-08T23:09:45.017Z,99.90
2019-01-08T23:12:14.212Z,99.90
2019-01-08T23:14:43.700Z,99.90
2019-01-08T23:17:12.882Z,99.90
2019-01-08T23:19:42.058Z,99.90
2019-01-08T23:22:12.237Z,99.90
2019-01-08T23:24:41.412Z,99.90
2019-01-08T23:27:10.940Z,99.90
2019-01-08T23:29:40.124Z,99.90
2019-01-08T23:32:09.488Z,99.90
2019-01-08T23:34:38.740Z,99.90
2019-01-08T23:37:07.964Z,99.90
2019-01-08T23:39:37.136Z,99.90
2019-01-08T23:42:06.315Z,99.90
2019-01-08T23:44:36.048Z,99.90
2019-01-08T23:47:05.210Z,99.90
2019-01-08T23:49:35.801Z,99.90
2019-01-08T23:52:19.891Z,99.90
2019-01-08T23:54:53.168Z,99.90
2019-01-08T23:57:23.848Z,99.90
2019-01-08T23:59:53.122Z,99.90
